広島空港の過去48時間の天気

広島空港 (New hiroshima)

現在時刻: 4/26 20:11 JST (4/26 11:11 UTC) 以下の時間は現地時間です。

過去48時間のMETAR気象情報
時間 風向 風速(m/s) 視程 気温(℃) 湿度(%) 気圧(hPa) 天気現象
26 20:00 不定 1 10km以上 15 45 1013
26 19:00 南南西 1 10km以上 15 48 1012
26 18:00 南東 2 10km以上 16 51 1012
26 17:00 南東 2 10km以上 18 42 1012
26 16:00 南東 2 10km以上 19 37 1012
26 15:00 南南東 4 10km以上 20 32 1012
26 14:00 東南東 3 10km以上 19 43 1013
26 13:00 南南東 3 10km以上 19 46 1013
26 12:00 南東 3 10km以上 18 45 1014
26 11:00 2 10km以上 16 51 1014
26 10:00 不定 2 10km以上 14 59 1015
26 09:00 不定 2 10km以上 13 62 1014
26 08:00 東北東 4 10km以上 11 67 1014
26 07:00 北北西 2 10km以上 10 71 1014
26 06:10 北西 1 10km以上 9 76 1014
25 22:00 2 10km以上 8 81 1013
25 21:00 北西 2 10km以上 9 76 1012
25 20:00 北西 3 10km以上 10 71 1011
25 19:00 北北西 2 10km以上 11 71 1011
25 18:00 北北西 4 10km以上 12 67 1010
25 17:00 北西 4 10km以上 13 67 1010
25 16:00 北西 5 10km以上 12 77 1009
25 15:00 北西 5 10km以上 13 77 1009
25 14:00 北北西 6 10km以上 14 72 1009
25 13:00 北北西 5 10km以上 13 77 1009
25 12:00 北西 6 10km以上 13 77 1009
25 11:00 北北西 4 10km以上 14 72 1009
25 10:00 北北西 6 10km以上 14 72 1008
25 09:00 北西 3 10km以上 14 72 1008
25 08:00 北西 4 10km以上 13 77 1007
25 07:00 西北西 5 10km以上 12 82 1007
25 06:10 西北西 5 10km以上 11 87 1006
24 22:00 8 3,000m 14 94 1004 しゅう雨 散在した霧 もや
24 21:33 8 2,500m 15 100 1004 しゅう雨 散在した霧 もや
24 21:21 8 1,800m 16 94 1004 強いしゅう雨 散在した霧 もや
24 21:17 8 2,500m 16 100 1004 しゅう雨 散在した霧 もや
24 21:00 5 1,600m 17 94 1004 強いしゅう雨 散在した霧 もや
24 20:39 北西 3 1,500m 18 94 1004 散在した霧 強いしゅう雨 もや
24 20:28 北北西 2 1,200m 18 94 1004 散在した霧 強いしゅう雨 もや
24 20:17 北西 2 1,600m 17 100 1004 強いしゅう雨 散在した霧 もや
RJOA 261100Z VRB01KT CAVOK 15/03 Q1013
RJOA 261000Z 20001KT CAVOK 15/04 Q1012
RJOA 260900Z 13003KT CAVOK 16/06 Q1012
RJOA 260800Z 14004KT 100V180 CAVOK 18/05 Q1012
RJOA 260700Z 14004KT 090V190 9999 FEW025 BKN/// 19/04 Q1012
RJOA 260600Z 16007KT 110V200 9999 SCT025 BKN/// 20/03 Q1012
RJOA 260500Z 12006KT 070V170 9999 FEW025 BKN/// 19/06 Q1013
RJOA 260400Z 15005KT 070V210 9999 FEW025 BKN/// 19/07 Q1013
RJOA 260300Z 13005KT 060V190 9999 FEW025 BKN/// 18/06 Q1014
RJOA 260200Z 10003KT 9999 FEW025 BKN/// 16/06 Q1014
RJOA 260100Z VRB03KT 9999 FEW025 BKN/// 14/06 Q1015
RJOA 260000Z VRB04KT 9999 FEW025 BKN/// 13/06 Q1014
RJOA 252300Z 06007KT CAVOK 11/05 Q1014
RJOA 252200Z 33003KT 290V030 CAVOK 10/05 Q1014
RJOA 252110Z 31002KT CAVOK 09/05 Q1014 RMK A2994
RJOA 251300Z 35004KT 9999 FEW020 08/05 Q1013
RJOA 251200Z 31004KT 260V020 9999 FEW020 09/05 Q1012
RJOA 251100Z 32005KT 9999 FEW020 SCT/// 10/05 Q1011
RJOA 251000Z 33004KT 9999 FEW020 SCT/// 11/06 Q1011
RJOA 250900Z 34008KT 9999 FEW020 BKN/// 12/06 Q1010
RJOA 250800Z 32008KT 280V360 9999 FEW015 BKN030 13/07 Q1010
RJOA 250700Z 32009KT 9999 SCT015 BKN020 12/08 Q1009
RJOA 250600Z 32010KT 280V350 9999 SCT015 BKN020 13/09 Q1009
RJOA 250500Z 33012KT 9999 SCT015 BKN020 14/09 Q1009
RJOA 250400Z 33009KT 290V360 9999 FEW012 BKN015 13/09 Q1009
RJOA 250300Z 32012KT 9999 FEW012 BKN015 13/09 Q1009
RJOA 250200Z 33008KT 270V080 9999 SCT015 BKN020 14/09 Q1009
RJOA 250100Z 33011KT 290V360 9999 FEW015 BKN020 14/09 Q1008
RJOA 250000Z 32006KT 250V030 9999 FEW010 BKN015 BKN080 14/09 Q1008
RJOA 242300Z 31007KT 280V010 9999 FEW010 BKN015 13/09 Q1007
RJOA 242200Z 30010KT 270V340 9999 FEW005 BKN012 12/09 Q1007
RJOA 242110Z 30010KT 280V340 9999 FEW003 BKN010 11/09 Q1006 RMK 1ST003 7CU010 A2971
RJOA 241300Z 35016KT 3000 SHRA BCFG BR FEW000 SCT010 BKN020 14/13 Q1004
RJOA 241233Z 35016KT 2500 SHRA BCFG BR FEW000 SCT007 BKN010 15/15 Q1004 RMK 1ST000 3ST007 5CU010 A2965 FG SE-S AND SW-W
RJOA 241221Z 36016KT 1800 +SHRA BCFG BR FEW000 SCT007 BKN010 16/15 Q1004 RMK 1ST000 3ST007 5CU010 A2966 FG SE AND SW-W
RJOA 241217Z 36015G25KT 2500 SHRA BCFG BR FEW000 SCT007 BKN010 16/16 Q1004 RMK 1ST000 3ST007 5CU010 A2966 FG SE AND SW-W
RJOA 241200Z 01009KT 340V040 1600 +SHRA BCFG BR FEW000 SCT007 BKN010 17/16 Q1004
RJOA 241139Z 32005KT 240V350 1500 R10/1000VP1800U +SHRA BCFG BR FEW000 SCT004 BKN007 18/17 Q1004 RMK 1ST000 3ST004 5ST007 A2967 FG SE-S AND SW-W
RJOA 241128Z 33003KT 300V010 1200 R10/1000VP1800U +SHRA BCFG BR FEW000 SCT004 BKN007 18/17 Q1004 RMK 1ST000 3ST004 5ST007 A2967 FG SE-S AND SW-W
RJOA 241117Z 31004KT 1600 +SHRA BCFG BR FEW000 SCT004 BKN007 17/17 Q1004 RMK 1ST000 3ST004 5ST007 A2967 FG SE-S AND SW-W